Time;durP1;ratioP1;P1;durP2;ratioP2;P2;SDS_P1;SDS_P2;PMS_P1;PMS_P2;Temp;Humidity;BMP_temperature;BMP_pressure;BME280_temperature;BME280_humidity;BME280_pressure;Samples;Min_cycle;Max_cycle;Signal;HPM_P1;HPM_P2
2022/12/12 00:01:23;;;;;;;28.60;14.10;;;1.50;99.90;;;;;;4942221;28;20050;-84
2022/12/12 00:03:49;;;;;;;33.53;14.90;;;0.20;99.90;;;;;;4927067;28;20068;-83
2022/12/12 00:06:14;;;;;;;33.05;15.10;;;0.20;99.90;;;;;;4925506;28;20520;-84
2022/12/12 00:08:40;;;;;;;31.05;14.73;;;0.70;99.90;;;;;;4925487;28;20058;-84
2022/12/12 00:11:06;;;;;;;29.58;14.38;;;0.30;99.90;;;;;;4957363;28;20086;-83
2022/12/12 00:13:32;;;;;;;32.15;15.32;;;1.80;99.90;;;;;;4925468;28;20046;-84
2022/12/12 00:15:57;;;;;;;28.90;14.90;;;0.20;99.90;;;;;;4941372;28;20051;-84
2022/12/12 00:18:23;;;;;;;27.90;14.43;;;0.20;99.90;;;;;;4925812;28;20058;-85
2022/12/12 00:20:53;;;;;;;30.95;15.07;;;-0.70;99.90;;;;;;4941517;28;20070;-84
2022/12/12 00:23:19;;;;;;;29.67;14.55;;;0.20;99.90;;;;;;4956845;28;20066;-84
2022/12/12 00:25:51;;;;;;;32.25;15.20;;;1.20;99.90;;;;;;4941189;28;20047;-84
2022/12/12 00:28:17;;;;;;;29.42;14.98;;;0.20;99.90;;;;;;4926952;28;20054;-84
2022/12/12 00:30:42;;;;;;;29.02;14.30;;;0.20;99.90;;;;;;4941461;28;20046;-84
2022/12/12 00:33:08;;;;;;;27.30;14.18;;;0.30;99.90;;;;;;4941556;28;20109;-84
2022/12/12 00:35:34;;;;;;;28.83;13.45;;;0.30;99.90;;;;;;4942049;28;20051;-84
2022/12/12 00:37:59;;;;;;;30.08;15.30;;;0.30;99.90;;;;;;4925517;28;20043;-83
2022/12/12 00:40:25;;;;;;;29.58;14.20;;;1.60;99.90;;;;;;4941895;28;20411;-84
2022/12/12 00:42:50;;;;;;;31.33;14.90;;;0.60;99.90;;;;;;4941274;28;20086;-84
2022/12/12 00:45:16;;;;;;;30.40;15.00;;;0.30;99.90;;;;;;4941012;28;20061;-83
2022/12/12 00:47:42;;;;;;;31.80;14.80;;;0.20;99.90;;;;;;4925375;28;20046;-84
2022/12/12 00:50:08;;;;;;;28.27;14.80;;;1.70;99.90;;;;;;4925493;28;20141;-83
2022/12/12 00:52:34;;;;;;;27.73;13.40;;;0.20;99.90;;;;;;4957054;28;20057;-84
2022/12/12 00:54:59;;;;;;;28.80;14.88;;;0.20;99.90;;;;;;4941272;28;20051;-84
2022/12/12 00:57:25;;;;;;;31.10;15.35;;;0.30;99.90;;;;;;4925615;28;20109;-84
2022/12/12 00:59:50;;;;;;;31.08;15.85;;;1.60;99.90;;;;;;4941826;28;20049;-84
2022/12/12 01:02:16;;;;;;;28.75;14.45;;;0.20;99.90;;;;;;4941361;28;20520;-84
2022/12/12 01:04:42;;;;;;;31.27;15.68;;;0.70;99.90;;;;;;4944286;28;20053;-83
2022/12/12 01:07:07;;;;;;;29.63;13.88;;;0.60;99.90;;;;;;4960359;28;20158;-84
2022/12/12 01:09:33;;;;;;;32.10;14.63;;;0.30;99.90;;;;;;4928540;28;20085;-83
2022/12/12 01:11:59;;;;;;;31.33;15.40;;;0.30;99.90;;;;;;4944064;28;20047;-84
2022/12/12 01:14:24;;;;;;;31.75;15.70;;;1.70;99.90;;;;;;4928422;28;20105;-84
2022/12/12 01:16:50;;;;;;;32.97;16.50;;;0.30;99.90;;;;;;4960089;28;20042;-84
2022/12/12 01:19:16;;;;;;;30.80;15.95;;;1.30;99.90;;;;;;4913107;28;20053;-84
2022/12/12 01:21:41;;;;;;;30.65;15.45;;;0.30;99.90;;;;;;4943949;28;20039;-83
2022/12/12 01:24:07;;;;;;;30.95;14.75;;;1.30;99.90;;;;;;4944378;28;20054;-83
2022/12/12 01:26:33;;;;;;;29.75;15.20;;;0.40;99.90;;;;;;4944238;28;20042;-83
2022/12/12 01:28:58;;;;;;;28.95;15.18;;;1.10;99.90;;;;;;4912443;28;20082;-83
2022/12/12 01:31:24;;;;;;;31.75;14.68;;;0.40;99.90;;;;;;4912576;28;20058;-84
2022/12/12 01:33:50;;;;;;;33.58;15.48;;;1.00;99.90;;;;;;4928067;28;20057;-84
2022/12/12 01:36:17;;;;;;;34.25;14.88;;;0.40;99.90;;;;;;4943612;28;20050;-84
2022/12/12 01:38:44;;;;;;;31.92;14.73;;;0.40;99.90;;;;;;4912426;28;20174;-84
2022/12/12 01:41:10;;;;;;;26.10;13.35;;;0.40;99.90;;;;;;4928734;28;20177;-84
2022/12/12 01:43:36;;;;;;;31.25;15.02;;;0.40;99.90;;;;;;4943829;28;20082;-83
2022/12/12 01:46:02;;;;;;;34.00;15.32;;;0.40;99.90;;;;;;4943796;28;20140;-83
2022/12/12 01:48:28;;;;;;;32.22;16.05;;;2.10;99.90;;;;;;4959881;28;20105;-83
2022/12/12 01:50:55;;;;;;;33.08;14.43;;;0.40;99.90;;;;;;4943994;28;20063;-83
2022/12/12 01:53:20;;;;;;;33.35;15.45;;;0.40;99.90;;;;;;4928767;28;20383;-84
2022/12/12 01:55:46;;;;;;;31.05;15.10;;;0.40;99.90;;;;;;4943369;28;20058;-84
2022/12/12 01:58:12;;;;;;;30.73;15.15;;;1.20;99.90;;;;;;4928296;28;20047;-84
2022/12/12 02:00:38;;;;;;;34.28;15.52;;;0.40;99.90;;;;;;4927626;28;20039;-83
2022/12/12 02:03:04;;;;;;;33.25;16.10;;;1.50;99.90;;;;;;4928167;28;20089;-83
2022/12/12 02:05:39;;;;;;;31.85;16.02;;;1.30;99.90;;;;;;4927544;28;20082;-84
2022/12/12 02:08:05;;;;;;;33.33;15.18;;;0.40;99.90;;;;;;4928959;28;20536;-84
2022/12/12 02:10:31;;;;;;;34.72;15.18;;;1.10;99.90;;;;;;4927297;28;20050;-84
2022/12/12 02:13:10;;;;;;;32.72;14.75;;;0.40;99.90;;;;;;4943069;28;20058;-83
2022/12/12 02:16:07;;;;;;;30.38;14.93;;;0.40;99.90;;;;;;4911320;28;20572;-84
2022/12/12 02:18:55;;;;;;;29.58;14.90;;;0.40;99.90;;;;;;4958542;28;20055;-84
2022/12/12 02:21:25;;;;;;;33.47;15.85;;;0.40;99.90;;;;;;4958752;28;20518;-84
2022/12/12 02:24:11;;;;;;;31.45;14.48;;;0.40;99.90;;;;;;4943002;28;20055;-83
2022/12/12 02:26:55;;;;;;;32.53;15.60;;;0.40;99.90;;;;;;4942934;28;20039;-83
2022/12/12 02:29:41;;;;;;;32.45;15.52;;;0.40;99.90;;;;;;4943718;28;20518;-84
2022/12/12 02:32:15;;;;;;;30.38;15.18;;;0.40;99.90;;;;;;4943164;28;20046;-83
2022/12/12 02:34:49;;;;;;;32.90;14.77;;;0.40;99.90;;;;;;4942878;28;20043;-84
2022/12/12 02:37:33;;;;;;;30.33;14.97;;;1.30;99.90;;;;;;4912124;28;20051;-84
2022/12/12 02:40:29;;;;;;;30.10;15.03;;;0.40;99.90;;;;;;4943062;28;20053;-84
2022/12/12 02:42:59;;;;;;;29.67;14.25;;;0.40;99.90;;;;;;4942929;28;20766;-83
2022/12/12 02:45:48;;;;;;;31.00;14.32;;;0.90;99.90;;;;;;4942528;28;20049;-84
2022/12/12 02:48:25;;;;;;;28.40;13.80;;;0.40;99.90;;;;;;4928411;28;20380;-83
2022/12/12 02:50:52;;;;;;;29.27;14.63;;;0.40;99.90;;;;;;4944167;28;20371;-83
2022/12/12 02:53:18;;;;;;;29.25;14.38;;;0.40;99.90;;;;;;4926718;28;20046;-84
2022/12/12 02:55:44;;;;;;;27.98;14.07;;;0.40;99.90;;;;;;4926622;28;20442;-83
2022/12/12 02:58:10;;;;;;;33.50;14.73;;;0.70;99.90;;;;;;4927237;28;20146;-83
2022/12/12 03:00:43;;;;;;;28.95;14.50;;;0.40;99.90;;;;;;4926902;28;20042;-83
2022/12/12 03:09:52;;;;;;;28.80;13.20;;;0.30;99.90;;;;;;4944946;28;20047;-83
2022/12/12 03:12:25;;;;;;;28.95;14.57;;;0.30;99.90;;;;;;4958143;28;20134;-84
2022/12/12 03:15:01;;;;;;;27.42;13.90;;;0.40;99.90;;;;;;4926574;28;20116;-83
2022/12/12 03:17:54;;;;;;;28.73;15.02;;;0.40;99.90;;;;;;4927604;28;20126;-84
2022/12/12 03:20:32;;;;;;;32.60;14.63;;;0.30;99.90;;;;;;4942557;28;20077;-83
2022/12/12 03:23:19;;;;;;;29.90;14.40;;;0.30;99.90;;;;;;4927428;28;20058;-84
2022/12/12 03:26:05;;;;;;;31.17;14.80;;;0.30;99.90;;;;;;4957808;28;20058;-83
2022/12/12 03:28:45;;;;;;;29.67;14.07;;;0.30;99.90;;;;;;4944869;28;20043;-83
2022/12/12 03:31:11;;;;;;;28.17;14.10;;;0.30;99.90;;;;;;4928368;28;20387;-83
2022/12/12 03:33:46;;;;;;;29.25;14.00;;;0.30;99.90;;;;;;4910388;28;20055;-83
2022/12/12 03:36:26;;;;;;;26.83;14.23;;;0.30;99.90;;;;;;4911630;28;20391;-83
2022/12/12 03:38:56;;;;;;;31.35;14.82;;;0.30;99.90;;;;;;4927592;28;20372;-83
2022/12/12 03:41:27;;;;;;;27.55;13.90;;;0.50;99.90;;;;;;4926680;28;20053;-84
2022/12/12 03:44:05;;;;;;;29.58;14.75;;;0.20;99.90;;;;;;4911211;28;20451;-84
2022/12/12 03:46:37;;;;;;;31.48;14.35;;;0.30;99.90;;;;;;4957881;28;20542;-83
2022/12/12 03:49:15;;;;;;;31.60;14.65;;;0.30;99.90;;;;;;4911061;28;20055;-83
2022/12/12 03:51:57;;;;;;;28.55;14.35;;;0.40;99.90;;;;;;4941554;28;20054;-84
2022/12/12 03:54:31;;;;;;;28.08;14.18;;;0.30;99.90;;;;;;4942780;28;20518;-83
2022/12/12 03:57:07;;;;;;;26.90;13.90;;;0.30;99.90;;;;;;4958358;28;20122;-83
2022/12/12 04:00:06;;;;;;;29.35;14.43;;;0.20;99.90;;;;;;4941658;28;20053;-83
2022/12/12 04:02:37;;;;;;;31.70;14.35;;;0.30;99.90;;;;;;4926282;28;20097;-84
2022/12/12 04:05:14;;;;;;;28.85;14.27;;;0.30;99.90;;;;;;4926545;28;20058;-83
2022/12/12 04:07:50;;;;;;;28.42;13.25;;;0.20;99.90;;;;;;4925792;28;20051;-84
2022/12/12 04:13:05;;;;;;;28.80;13.82;;;0.20;99.90;;;;;;4931472;28;20152;-84
2022/12/12 04:16:09;;;;;;;27.25;14.32;;;0.20;99.90;;;;;;4957348;28;20082;-84
2022/12/12 04:18:52;;;;;;;30.35;14.77;;;0.20;99.90;;;;;;4957610;28;20042;-84
2022/12/12 04:24:27;;;;;;;27.35;13.52;;;0.20;99.90;;;;;;4932369;28;20065;-84
2022/12/12 04:27:05;;;;;;;28.10;13.75;;;0.10;99.90;;;;;;4956905;28;20098;-84
2022/12/12 04:29:34;;;;;;;26.70;13.57;;;0.30;99.90;;;;;;4957100;28;20102;-83
2022/12/12 04:32:18;;;;;;;28.10;13.85;;;1.10;99.90;;;;;;4957349;28;20118;-83
2022/12/12 04:34:50;;;;;;;29.70;14.20;;;0.20;99.90;;;;;;4943697;28;20497;-84
2022/12/12 04:37:21;;;;;;;28.55;14.07;;;0.10;99.90;;;;;;4957594;28;20054;-84
2022/12/12 04:39:48;;;;;;;29.27;13.68;;;0.10;99.90;;;;;;4929346;28;20129;-83
2022/12/12 04:42:16;;;;;;;30.02;14.25;;;0.20;99.90;;;;;;4945094;28;20050;-83
2022/12/12 04:44:42;;;;;;;30.42;14.43;;;0.20;99.90;;;;;;4929202;28;20043;-83
2022/12/12 04:47:08;;;;;;;28.58;14.00;;;0.20;99.90;;;;;;4913016;28;20065;-83
2022/12/12 04:49:33;;;;;;;26.98;13.65;;;0.20;99.90;;;;;;4944766;28;20038;-83
2022/12/12 04:52:10;;;;;;;30.33;14.70;;;0.80;99.90;;;;;;4929008;28;20098;-83
2022/12/12 04:54:46;;;;;;;29.30;13.90;;;0.10;99.90;;;;;;4930192;28;20635;-83
2022/12/12 04:57:14;;;;;;;28.88;13.93;;;1.20;99.90;;;;;;4929956;28;20046;-83
2022/12/12 04:59:40;;;;;;;29.30;13.75;;;0.40;99.90;;;;;;4913305;28;20062;-84
2022/12/12 05:02:19;;;;;;;30.85;14.43;;;1.40;99.90;;;;;;4929600;28;20104;-83
2022/12/12 05:05:43;;;;;;;28.77;13.75;;;0.20;99.90;;;;;;4929247;28;20129;-83
2022/12/12 05:08:25;;;;;;;29.08;14.27;;;0.20;99.90;;;;;;4937176;28;20055;-83
2022/12/12 05:10:53;;;;;;;31.30;15.25;;;0.10;99.90;;;;;;4944714;28;20561;-84
2022/12/12 05:13:21;;;;;;;27.30;13.95;;;0.10;99.90;;;;;;4913417;28;20057;-83
2022/12/12 05:15:47;;;;;;;31.13;14.98;;;0.10;99.90;;;;;;4928683;28;20410;-84
2022/12/12 05:18:13;;;;;;;25.88;13.93;;;0.70;99.90;;;;;;4912847;28;20065;-84
2022/12/12 05:20:38;;;;;;;28.60;14.07;;;1.30;99.90;;;;;;4928169;28;20475;-83
2022/12/12 05:23:04;;;;;;;27.15;13.73;;;1.70;99.90;;;;;;4959691;28;20066;-83
2022/12/12 05:25:30;;;;;;;27.45;13.95;;;0.10;99.90;;;;;;4928772;28;20137;-83
2022/12/12 05:27:55;;;;;;;29.50;13.82;;;1.50;99.90;;;;;;4927727;28;20053;-83
2022/12/12 05:30:21;;;;;;;31.83;15.48;;;0.20;99.90;;;;;;4944083;28;20108;-83
2022/12/12 05:32:47;;;;;;;28.60;14.55;;;0.10;99.90;;;;;;4912588;28;20073;-84
2022/12/12 05:35:13;;;;;;;29.67;14.98;;;1.30;99.90;;;;;;4913213;28;20062;-83
2022/12/12 05:37:38;;;;;;;27.75;14.15;;;1.50;99.90;;;;;;4944685;28;20058;-84
2022/12/12 05:40:05;;;;;;;27.92;13.43;;;0.10;99.90;;;;;;4928169;28;20071;-84
2022/12/12 05:42:31;;;;;;;26.00;14.05;;;0.10;99.90;;;;;;4928503;28;20047;-84
2022/12/12 05:44:57;;;;;;;26.20;13.98;;;0.10;99.90;;;;;;4960323;28;20057;-83
2022/12/12 05:47:23;;;;;;;29.33;14.55;;;0.20;99.90;;;;;;4946213;28;20053;-83
2022/12/12 05:49:48;;;;;;;29.63;13.50;;;1.70;99.90;;;;;;4964027;28;20074;-83
2022/12/12 05:52:14;;;;;;;25.52;14.05;;;0.10;99.90;;;;;;4931933;28;20414;-83
2022/12/12 05:54:40;;;;;;;27.23;14.00;;;1.00;99.90;;;;;;4947710;28;20046;-83
2022/12/12 05:57:05;;;;;;;25.45;13.48;;;0.10;99.90;;;;;;4962885;28;20046;-83
2022/12/12 05:59:31;;;;;;;29.40;13.93;;;1.60;99.90;;;;;;4961688;28;20050;-83
2022/12/12 06:01:57;;;;;;;29.60;14.80;;;0.00;99.90;;;;;;4963151;28;20185;-83
2022/12/12 06:04:22;;;;;;;28.05;14.48;;;0.10;99.90;;;;;;4944383;28;20403;-83
2022/12/12 06:06:48;;;;;;;25.67;13.95;;;0.10;99.90;;;;;;4959197;28;20050;-83
2022/12/12 06:09:14;;;;;;;27.25;14.45;;;0.10;99.90;;;;;;4943387;28;20042;-83
2022/12/12 06:11:40;;;;;;;27.30;13.80;;;0.10;99.90;;;;;;4943633;28;20051;-84
2022/12/12 06:14:06;;;;;;;25.95;13.82;;;0.10;99.90;;;;;;4927916;28;20147;-83
2022/12/12 06:16:31;;;;;;;26.50;13.45;;;0.10;99.90;;;;;;4929350;28;20111;-84
2022/12/12 06:18:57;;;;;;;28.33;14.07;;;1.20;99.90;;;;;;4947710;28;20154;-83
2022/12/12 06:21:23;;;;;;;27.75;13.68;;;1.00;99.90;;;;;;4930302;28;20046;-83
2022/12/12 06:23:48;;;;;;;27.20;13.77;;;0.10;99.90;;;;;;4961367;28;20113;-84
2022/12/12 06:26:15;;;;;;;25.60;13.38;;;0.10;99.90;;;;;;4960095;28;20058;-83
2022/12/12 06:28:40;;;;;;;29.80;14.43;;;1.20;99.90;;;;;;4944514;28;20054;-83
2022/12/12 06:31:07;;;;;;;36.03;17.13;;;0.10;99.90;;;;;;4912309;28;20044;-83
2022/12/12 06:33:34;;;;;;;40.72;19.20;;;0.10;99.90;;;;;;4927094;28;20050;-83
2022/12/12 06:36:03;;;;;;;36.42;17.45;;;0.10;99.90;;;;;;4927563;28;20072;-83
2022/12/12 06:38:29;;;;;;;31.23;14.35;;;0.10;99.90;;;;;;4911894;28;20066;-83
2022/12/12 06:40:55;;;;;;;26.10;13.50;;;0.20;99.90;;;;;;4927094;28;20083;-83
2022/12/12 06:43:21;;;;;;;26.48;14.20;;;0.20;99.90;;;;;;4927785;28;20043;-83
2022/12/12 06:45:46;;;;;;;30.15;14.77;;;0.40;99.90;;;;;;4942915;28;20043;-83
2022/12/12 06:48:12;;;;;;;28.10;14.63;;;0.70;99.90;;;;;;4958864;28;20094;-83
2022/12/12 06:50:39;;;;;;;28.08;12.65;;;0.40;99.90;;;;;;4942793;28;20379;-83
2022/12/12 06:53:04;;;;;;;25.38;13.63;;;0.10;99.90;;;;;;4942633;28;20054;-83
2022/12/12 06:55:30;;;;;;;29.02;14.80;;;1.30;99.90;;;;;;4942488;28;20057;-83
2022/12/12 06:57:55;;;;;;;27.10;13.23;;;0.40;99.90;;;;;;4942628;28;20142;-83
2022/12/12 07:00:21;;;;;;;29.70;14.68;;;1.10;99.90;;;;;;4958652;28;20057;-83
2022/12/12 07:02:47;;;;;;;30.52;14.63;;;0.70;99.90;;;;;;4942588;28;20051;-83
2022/12/12 07:05:12;;;;;;;25.75;14.40;;;0.40;99.90;;;;;;4926662;28;20105;-83
2022/12/12 07:07:38;;;;;;;27.58;14.50;;;0.40;99.90;;;;;;4958274;28;20423;-83
2022/12/12 07:10:04;;;;;;;28.85;13.30;;;0.10;99.90;;;;;;4942484;28;20345;-83
2022/12/12 07:12:30;;;;;;;25.33;13.80;;;0.10;99.90;;;;;;4943123;28;20043;-84
2022/12/12 07:14:55;;;;;;;31.88;14.10;;;0.10;99.90;;;;;;4958673;28;20039;-84
2022/12/12 07:17:21;;;;;;;27.48;13.55;;;0.10;99.90;;;;;;4926592;28;20086;-83
2022/12/12 07:19:47;;;;;;;27.45;13.50;;;0.10;99.90;;;;;;4958653;28;20057;-84
2022/12/12 07:22:12;;;;;;;25.38;13.15;;;0.50;99.90;;;;;;4941779;28;20054;-84
2022/12/12 07:24:38;;;;;;;27.45;13.23;;;1.40;99.90;;;;;;4927050;28;20089;-83
2022/12/12 07:27:04;;;;;;;25.75;12.85;;;0.10;99.90;;;;;;4941965;28;20505;-83
2022/12/12 07:29:30;;;;;;;25.40;13.48;;;0.10;99.90;;;;;;4941635;28;20047;-83
2022/12/12 07:31:55;;;;;;;25.77;13.68;;;0.70;99.90;;;;;;4910644;28;20047;-83
2022/12/12 07:34:21;;;;;;;26.77;13.32;;;0.60;99.90;;;;;;4926204;28;20055;-83
2022/12/12 07:36:47;;;;;;;29.50;13.63;;;1.60;99.90;;;;;;4957880;28;20054;-84
2022/12/12 07:39:12;;;;;;;28.45;14.13;;;0.90;99.90;;;;;;4941515;28;20054;-83
2022/12/12 07:41:38;;;;;;;27.60;14.20;;;0.60;99.90;;;;;;4957773;28;20050;-84
2022/12/12 07:44:04;;;;;;;31.38;14.32;;;0.90;99.90;;;;;;4957664;28;20105;-83
2022/12/12 07:46:29;;;;;;;27.08;14.27;;;1.00;99.90;;;;;;4925545;28;20400;-84
2022/12/12 07:48:55;;;;;;;30.75;14.32;;;1.60;99.90;;;;;;4957861;28;20047;-84
2022/12/12 07:51:21;;;;;;;24.45;13.13;;;1.00;99.90;;;;;;4926571;28;20051;-83
2022/12/12 07:53:47;;;;;;;26.35;13.15;;;0.10;99.90;;;;;;4925745;28;20050;-83
2022/12/12 07:56:16;;;;;;;27.10;13.70;;;0.80;99.90;;;;;;4941671;28;20065;-83
2022/12/12 07:58:42;;;;;;;24.70;13.40;;;0.20;99.90;;;;;;4926215;28;20475;-84
2022/12/12 08:01:13;;;;;;;28.30;14.20;;;0.20;99.90;;;;;;4942112;28;20106;-83
2022/12/12 08:03:38;;;;;;;28.45;13.85;;;0.10;99.90;;;;;;4942100;28;20353;-83
2022/12/12 08:06:05;;;;;;;26.73;13.35;;;0.70;99.90;;;;;;4942080;28;20050;-83
2022/12/12 08:08:31;;;;;;;26.40;13.43;;;0.20;99.90;;;;;;4910216;28;20117;-83
2022/12/12 08:10:57;;;;;;;25.33;13.85;;;0.20;99.90;;;;;;4909984;28;20070;-83
2022/12/12 08:13:22;;;;;;;27.17;13.38;;;0.20;99.90;;;;;;4927132;28;20113;-83
2022/12/12 08:15:48;;;;;;;24.30;12.98;;;0.20;99.90;;;;;;4961650;28;20050;-84
2022/12/12 08:18:13;;;;;;;24.67;12.95;;;0.90;99.90;;;;;;4929553;28;20456;-83
2022/12/12 08:20:40;;;;;;;24.23;13.95;;;0.30;99.90;;;;;;4945049;28;20047;-83
2022/12/12 08:23:06;;;;;;;26.42;13.88;;;0.40;99.90;;;;;;4929157;28;20059;-82
2022/12/12 08:25:33;;;;;;;23.52;13.05;;;1.50;99.90;;;;;;4929272;28;20050;-83
2022/12/12 08:27:59;;;;;;;24.17;12.85;;;1.70;99.90;;;;;;4929841;28;20049;-82
2022/12/12 08:30:25;;;;;;;25.42;14.50;;;1.10;99.90;;;;;;4961893;28;20051;-82
2022/12/12 08:32:50;;;;;;;21.98;12.55;;;0.60;99.90;;;;;;4945772;28;20042;-82
2022/12/12 08:35:16;;;;;;;24.20;12.40;;;0.40;99.90;;;;;;4961059;28;20165;-83
2022/12/12 08:37:42;;;;;;;25.05;13.80;;;0.50;99.90;;;;;;4945254;28;20078;-83
2022/12/12 08:40:08;;;;;;;25.23;13.85;;;0.60;99.90;;;;;;4945477;28;20043;-83
2022/12/12 08:42:33;;;;;;;20.88;12.38;;;0.60;99.90;;;;;;4960784;28;20109;-83
2022/12/12 08:44:59;;;;;;;22.88;13.77;;;0.70;99.90;;;;;;4945106;28;20042;-83
2022/12/12 08:47:25;;;;;;;24.52;12.77;;;1.00;99.90;;;;;;4944897;28;20047;-82
2022/12/12 08:49:51;;;;;;;22.25;12.77;;;0.90;99.90;;;;;;4944795;28;20047;-83
2022/12/12 08:52:16;;;;;;;21.80;12.85;;;1.90;99.90;;;;;;4945455;28;20053;-83
2022/12/12 08:54:42;;;;;;;20.80;12.50;;;2.40;99.90;;;;;;4944377;28;20506;-83
2022/12/12 08:57:07;;;;;;;20.65;12.15;;;1.30;99.90;;;;;;4960457;28;20112;-83
2022/12/12 08:59:33;;;;;;;22.48;13.07;;;1.40;99.90;;;;;;4928908;28;20134;-84
2022/12/12 09:01:59;;;;;;;19.98;12.25;;;1.60;99.90;;;;;;4944747;28;20061;-83
2022/12/12 09:04:24;;;;;;;20.58;12.48;;;2.50;99.90;;;;;;4944586;28;20509;-83
2022/12/12 09:06:50;;;;;;;19.70;11.88;;;2.10;99.90;;;;;;4912866;28;20062;-83
2022/12/12 09:09:16;;;;;;;22.38;12.43;;;2.10;99.90;;;;;;4960463;28;20047;-83
2022/12/12 09:11:42;;;;;;;20.70;11.93;;;2.10;99.90;;;;;;4928781;28;20053;-85
2022/12/12 09:14:07;;;;;;;19.00;12.38;;;2.20;99.90;;;;;;4944418;28;20047;-83
2022/12/12 09:16:33;;;;;;;20.40;12.07;;;2.30;99.90;;;;;;4960533;28;20046;-83
2022/12/12 09:18:59;;;;;;;20.60;12.63;;;2.40;99.90;;;;;;4928496;28;20049;-84
2022/12/12 09:21:24;;;;;;;20.42;12.02;;;2.30;99.90;;;;;;4944202;28;20058;-84
2022/12/12 09:23:50;;;;;;;18.70;11.75;;;3.20;99.90;;;;;;4959270;28;20090;-84
2022/12/12 09:26:16;;;;;;;16.48;11.35;;;2.50;99.90;;;;;;4927737;28;20054;-86
2022/12/12 09:28:42;;;;;;;20.20;12.35;;;2.00;99.90;;;;;;4944198;28;20055;-81
2022/12/12 09:31:08;;;;;;;20.33;12.63;;;1.20;99.90;;;;;;4959893;28;20565;-82
2022/12/12 09:33:34;;;;;;;20.60;12.57;;;1.20;99.90;;;;;;4944057;28;20054;-82
2022/12/12 09:36:01;;;;;;;20.08;12.02;;;1.90;99.90;;;;;;4943796;28;20043;-81
2022/12/12 09:38:27;;;;;;;19.98;11.27;;;2.40;99.90;;;;;;4913040;28;20050;-82
2022/12/12 09:40:57;;;;;;;23.80;14.05;;;1.40;99.90;;;;;;4943828;28;20053;-82
2022/12/12 09:43:28;;;;;;;23.50;13.10;;;1.10;99.90;;;;;;4929866;28;20400;-82
2022/12/12 09:45:53;;;;;;;25.08;14.18;;;1.10;99.90;;;;;;4913112;28;20062;-81
2022/12/12 09:48:43;;;;;;;25.67;15.15;;;1.40;99.90;;;;;;4928641;28;20275;-85
2022/12/12 09:51:09;;;;;;;28.25;14.73;;;0.90;99.90;;;;;;4946055;28;20541;-84
2022/12/12 09:53:35;;;;;;;27.05;15.68;;;1.60;99.90;;;;;;4928064;28;20050;-83
2022/12/12 09:56:20;;;;;;;28.90;15.88;;;1.00;99.90;;;;;;4927919;28;20046;-82
2022/12/12 09:58:50;;;;;;;28.25;15.38;;;0.90;99.90;;;;;;4912196;28;20503;-83
2022/12/12 10:01:35;;;;;;;27.90;15.70;;;1.20;99.90;;;;;;4928723;28;20562;-82
2022/12/12 10:04:10;;;;;;;28.35;16.83;;;0.80;99.90;;;;;;4943439;28;20055;-83
2022/12/12 10:06:41;;;;;;;32.20;16.83;;;0.80;99.90;;;;;;4959076;28;20051;-83
2022/12/12 10:09:23;;;;;;;37.00;19.23;;;0.90;99.90;;;;;;4944183;28;20089;-82
2022/12/12 10:11:53;;;;;;;34.42;17.45;;;0.80;99.90;;;;;;4928074;28;20051;-83
2022/12/12 10:14:37;;;;;;;34.80;17.73;;;1.80;99.90;;;;;;4944169;28;20185;-83
2022/12/12 10:17:09;;;;;;;38.15;18.52;;;0.80;99.90;;;;;;4911836;28;20059;-82
2022/12/12 10:19:42;;;;;;;34.80;18.45;;;0.80;99.90;;;;;;4928302;28;20486;-82
2022/12/12 10:22:14;;;;;;;32.72;17.77;;;0.80;99.90;;;;;;4928988;28;20130;-82
2022/12/12 10:25:05;;;;;;;37.83;18.95;;;0.80;99.90;;;;;;4927925;28;20145;-82
2022/12/12 10:27:31;;;;;;;33.67;17.85;;;0.90;99.90;;;;;;4930918;28;20051;-81
2022/12/12 10:29:56;;;;;;;34.97;17.85;;;0.90;99.90;;;;;;4927396;28;20095;-81
2022/12/12 10:33:04;;;;;;;35.95;18.55;;;0.90;99.90;;;;;;4927312;28;20078;-82
2022/12/12 10:35:53;;;;;;;36.83;18.95;;;0.90;99.90;;;;;;4919029;28;20055;-82
2022/12/12 10:38:31;;;;;;;34.22;17.70;;;1.00;99.90;;;;;;4929836;28;20445;-82
2022/12/12 10:41:06;;;;;;;36.55;18.25;;;1.00;99.90;;;;;;4943936;28;20047;-81
2022/12/12 10:43:49;;;;;;;32.85;17.73;;;0.90;99.90;;;;;;4943046;28;20093;-82
2022/12/12 10:46:30;;;;;;;36.03;18.63;;;2.20;99.90;;;;;;4927559;28;20505;-83
2022/12/12 10:48:56;;;;;;;34.72;18.80;;;1.00;99.90;;;;;;4912306;28;20073;-82
2022/12/12 10:51:22;;;;;;;35.97;18.75;;;1.00;99.90;;;;;;4927791;28;20438;-83
2022/12/12 10:53:48;;;;;;;37.13;18.60;;;1.10;99.90;;;;;;4911670;28;20062;-82
2022/12/12 10:56:25;;;;;;;34.45;16.90;;;1.10;99.90;;;;;;4942513;28;20479;-82
2022/12/12 10:58:55;;;;;;;34.55;18.27;;;1.10;99.90;;;;;;4911004;28;20113;-82
2022/12/12 11:01:25;;;;;;;32.17;17.00;;;2.20;99.90;;;;;;4942983;28;20105;-82
2022/12/12 11:03:52;;;;;;;39.72;19.35;;;2.10;99.90;;;;;;4942437;28;20118;-83
2022/12/12 11:06:29;;;;;;;35.75;18.63;;;1.20;99.90;;;;;;4926476;28;20047;-82
2022/12/12 11:09:22;;;;;;;31.95;18.27;;;1.20;99.90;;;;;;4928193;28;20558;-81
2022/12/12 11:12:13;;;;;;;35.45;18.75;;;1.10;99.90;;;;;;4924526;28;20066;-82
2022/12/12 11:15:03;;;;;;;35.53;18.67;;;1.20;99.90;;;;;;4927933;28;20589;-83
2022/12/12 11:17:30;;;;;;;36.10;18.15;;;1.10;99.90;;;;;;4935087;28;20055;-82
2022/12/12 11:19:57;;;;;;;38.33;18.60;;;1.20;99.90;;;;;;4926549;28;20061;-83
2022/12/12 11:22:23;;;;;;;34.33;18.55;;;2.40;99.90;;;;;;4926991;28;20432;-81
2022/12/12 11:24:49;;;;;;;36.20;18.10;;;1.20;99.90;;;;;;4910970;28;20050;-81
2022/12/12 11:27:39;;;;;;;34.60;18.02;;;1.40;99.90;;;;;;4926242;28;20564;-81
2022/12/12 11:30:06;;;;;;;35.13;18.40;;;1.30;99.90;;;;;;4942442;28;20487;-81
2022/12/12 11:32:39;;;;;;;32.58;16.38;;;1.30;99.90;;;;;;4942937;28;20046;-83
2022/12/12 11:35:17;;;;;;;34.42;17.98;;;1.30;99.90;;;;;;4926022;28;20055;-79
2022/12/12 11:37:47;;;;;;;33.38;17.10;;;1.30;99.90;;;;;;4912463;28;20093;-82
2022/12/12 11:40:22;;;;;;;31.00;16.58;;;1.30;99.90;;;;;;4926443;28;20051;-81
2022/12/12 11:42:48;;;;;;;31.95;16.63;;;2.70;99.90;;;;;;4927628;28;20060;-82
2022/12/12 11:45:13;;;;;;;30.45;16.38;;;1.30;99.90;;;;;;4928645;28;20055;-81
2022/12/12 11:47:41;;;;;;;31.23;17.65;;;1.30;99.90;;;;;;4960885;28;20055;-81
2022/12/12 11:50:18;;;;;;;30.23;16.77;;;1.80;99.90;;;;;;4929329;28;20051;-82
2022/12/12 11:52:44;;;;;;;30.50;16.90;;;2.40;99.90;;;;;;4960413;28;20062;-81
2022/12/12 11:55:18;;;;;;;31.73;16.90;;;1.30;99.90;;;;;;4941869;28;20046;-80
2022/12/12 11:57:44;;;;;;;34.42;18.00;;;1.30;99.90;;;;;;4926509;28;20426;-81
2022/12/12 12:00:20;;;;;;;30.50;16.95;;;1.30;99.90;;;;;;4957832;28;20059;-81
2022/12/12 12:03:25;;;;;;;33.28;16.98;;;1.30;99.90;;;;;;4927372;28;20054;-81
2022/12/12 12:06:09;;;;;;;32.13;17.98;;;1.30;99.90;;;;;;4940729;28;20057;-80
2022/12/12 12:08:39;;;;;;;;;;;1.30;99.90;;;;;;4944150;28;20043;-81
2022/12/12 12:11:27;;;;;;;38.97;17.77;;;1.30;99.90;;;;;;4957909;28;19921;-81
2022/12/12 12:14:13;;;;;;;33.05;17.65;;;1.30;99.90;;;;;;4941593;28;20398;-81
2022/12/12 12:16:55;;;;;;;34.95;17.80;;;1.30;99.90;;;;;;4942520;28;20138;-83
2022/12/12 12:19:41;;;;;;;31.92;16.27;;;1.30;99.90;;;;;;4927042;28;20043;-84
2022/12/12 12:22:06;;;;;;;32.65;16.75;;;1.20;99.90;;;;;;4926880;28;20446;-82
2022/12/12 12:24:54;;;;;;;34.85;17.77;;;1.40;99.90;;;;;;4959940;28;20055;-82
2022/12/12 12:27:57;;;;;;;28.60;15.52;;;1.30;99.90;;;;;;4943333;28;20185;-83
2022/12/12 12:30:28;;;;;;;33.97;16.52;;;1.20;99.90;;;;;;4959186;28;20058;-82
2022/12/12 12:33:17;;;;;;;31.30;16.13;;;2.60;99.90;;;;;;4913433;28;20161;-82
2022/12/12 12:36:04;;;;;;;36.30;16.58;;;1.30;99.90;;;;;;4944933;28;20050;-82
2022/12/12 12:38:47;;;;;;;32.90;16.52;;;1.30;99.90;;;;;;4957194;28;20051;-82
2022/12/12 12:41:12;;;;;;;33.90;17.65;;;1.30;99.90;;;;;;4941814;28;20137;-82
2022/12/12 12:44:15;;;;;;;30.23;16.25;;;1.60;99.90;;;;;;4957162;28;20161;-82
2022/12/12 12:46:45;;;;;;;33.10;16.67;;;1.40;99.90;;;;;;4941174;28;20439;-82
2022/12/12 12:49:31;;;;;;;32.42;16.25;;;1.40;99.90;;;;;;4940981;28;20047;-82
2022/12/12 12:52:05;;;;;;;34.00;17.58;;;1.40;99.90;;;;;;4927672;28;20105;-82
2022/12/12 12:54:41;;;;;;;36.67;18.13;;;1.40;99.90;;;;;;4926355;28;20061;-83
2022/12/12 12:57:16;;;;;;;32.38;16.65;;;1.40;99.90;;;;;;4941363;28;20296;-83
2022/12/12 12:59:47;;;;;;;32.67;16.88;;;1.50;99.90;;;;;;4943639;28;20069;-83
2022/12/12 13:02:29;;;;;;;31.17;16.90;;;1.50;99.90;;;;;;4929645;28;20101;-83
2022/12/12 13:05:05;;;;;;;31.30;16.38;;;1.40;99.90;;;;;;4930185;28;20047;-83
2022/12/12 13:07:40;;;;;;;28.25;15.73;;;1.50;99.90;;;;;;4945416;28;20083;-82
2022/12/12 13:10:23;;;;;;;32.10;16.88;;;1.50;99.90;;;;;;4945672;28;20061;-83